This is the latest recevied weather packets stored in our database for station/object N1PRS-9. If no packets are shown the sender has not sent any weather packets the latest 10 day(s).
| Time | Temp. | Humidity | Pressure | Rain* | Wind** | Luminosity | Snow |
|---|---|---|---|---|---|---|---|
| 1778037344 | 17.22° C | 70% | 1011 hPa | 0 mm | - | 0 W/m² | - |
| 1778034033 | 17.22° C | 69% | 1010.8 hPa | 0 mm | - | 0 W/m² | - |
| 1778033132 | 17.22° C | 69% | 1010.8 hPa | 0 mm | - | 0 W/m² | - |
| 1778032848 | 17.22° C | 69% | 1010.7 hPa | 0 mm | - | 0 W/m² | - |
| 1778030732 | 17.22° C | 68% | 1010.4 hPa | 0 mm | - | 0 W/m² | - |
| 1778029832 | 17.78° C | 67% | 1010.1 hPa | 0 mm | - | 0 W/m² | - |
| 1778027444 | 18.33° C | 64% | 1009.7 hPa | 0 mm | - | 0 W/m² | - |
| 1778026548 | 18.33° C | 64% | 1009.5 hPa | 0 mm | - | 0 W/m² | - |
| 1778023844 | 19.44° C | 61% | 1009 hPa | 0 mm | - | 11 W/m² | - |
| 1778020246 | 21.67° C | 57% | 1008 hPa | 0 mm | - | 77 W/m² | - |
| 1778019632 | 22.22° C | 56% | 1008.2 hPa | 0 mm | - | 193 W/m² | - |
| 1778017233 | 23.89° C | 52% | 1008.3 hPa | 0 mm | - | 373 W/m² | - |
| 1778016935 | 23.89° C | 52% | 1008 hPa | 0 mm | - | 367 W/m² | - |
| 1778016657 | 23.89° C | 53% | 1008.2 hPa | 0 mm | - | 406 W/m² | - |
| 1778016333 | 23.89° C | 52% | 1008.2 hPa | 0 mm | - | 350 W/m² | - |
| 1778014534 | 24.44° C | 50% | 1008 hPa | 0 mm | - | 343 W/m² | - |
| 1778013954 | 25° C | 50% | 1008 hPa | 0 mm | - | 480 W/m² | - |
| 1778011533 | 25.56° C | 51% | 1008.3 hPa | 0 mm | - | 659 W/m² | - |
| 1778010354 | 25.56° C | 52% | 1008.3 hPa | 0 mm | - | 717 W/m² | - |
| 1778009135 | 25.56° C | 50% | 1008.3 hPa | 0 mm | - | 779 W/m² | - |
| 1778007649 | 26.11° C | 49% | 1008.3 hPa | 0 mm | - | 796 W/m² | - |
| 1778001347 | 25° C | 52% | 1009.2 hPa | 0 mm | - | 911 W/m² | - |
| 1778000444 | 25° C | 52% | 1008.9 hPa | 0 mm | - | 911 W/m² | - |
| 1777999548 | 24.44° C | 51% | 1009.2 hPa | 0 mm | - | 902 W/m² | - |
| 1777998653 | 23.89° C | 53% | 1009.6 hPa | 0 mm | - | 765 W/m² | - |
* Rain latest hour (hover to see other rain measurements)
** Current wind speed in m/s (hover to see current wind gust speed)